createdAt,value
2017-12-12T00:00:06.956Z,1.70
2017-12-12T00:02:34.398Z,0.50
2017-12-12T00:05:02.011Z,0.50
2017-12-12T00:07:29.449Z,0.40
2017-12-12T00:09:56.885Z,0.40
2017-12-12T00:12:24.367Z,2.50
2017-12-12T00:14:51.808Z,0.40
2017-12-12T00:17:19.264Z,0.50
2017-12-12T00:19:46.719Z,0.50
2017-12-12T00:25:10.343Z,0.50
2017-12-12T00:27:37.797Z,0.33
2017-12-12T00:30:05.248Z,0.50
2017-12-12T00:32:32.716Z,0.60
2017-12-12T00:35:00.157Z,0.83
2017-12-12T00:37:27.661Z,3.20
2017-12-12T00:39:55.162Z,0.40
2017-12-12T00:42:22.618Z,0.40
2017-12-12T00:44:50.075Z,0.50
2017-12-12T00:47:17.522Z,0.50
2017-12-12T00:49:44.950Z,0.50
2017-12-12T00:52:12.414Z,0.33
2017-12-12T00:54:39.851Z,0.40
2017-12-12T00:57:07.287Z,0.40
2017-12-12T00:59:34.751Z,0.40
2017-12-12T01:02:02.191Z,0.70
2017-12-12T01:04:29.638Z,0.30
2017-12-12T01:06:57.074Z,0.53
2017-12-12T01:09:24.526Z,0.50
2017-12-12T01:11:52.009Z,0.40
2017-12-12T01:14:19.553Z,0.40
2017-12-12T01:16:46.994Z,0.67
2017-12-12T01:19:14.470Z,0.50
2017-12-12T01:21:41.907Z,0.50
2017-12-12T01:24:09.379Z,0.50
2017-12-12T01:26:36.811Z,0.67
2017-12-12T01:29:04.270Z,0.60
2017-12-12T01:31:31.722Z,0.50
2017-12-12T01:33:59.179Z,0.70
2017-12-12T01:36:26.612Z,2.90
2017-12-12T01:41:30.938Z,0.60
2017-12-12T01:43:58.441Z,0.57
2017-12-12T01:46:25.888Z,0.83
2017-12-12T01:48:53.395Z,1.07
2017-12-12T01:51:20.893Z,0.60
2017-12-12T01:53:48.332Z,0.60
2017-12-12T01:56:15.795Z,0.80
2017-12-12T01:58:43.227Z,1.00
2017-12-12T02:01:10.682Z,0.80
2017-12-12T02:03:38.107Z,0.70
2017-12-12T02:06:05.618Z,1.00
2017-12-12T02:08:33.067Z,1.20
2017-12-12T02:11:00.519Z,1.00
2017-12-12T02:13:27.946Z,1.40
2017-12-12T02:15:55.408Z,1.10
2017-12-12T02:18:22.842Z,1.40
2017-12-12T02:20:50.266Z,1.27
2017-12-12T02:23:17.728Z,1.33
2017-12-12T02:25:45.176Z,0.97
2017-12-12T02:28:12.658Z,1.20
2017-12-12T02:30:40.095Z,1.60
2017-12-12T02:33:07.585Z,0.80
2017-12-12T02:35:35.028Z,2.83
2017-12-12T02:38:02.478Z,2.10
2017-12-12T02:40:29.910Z,1.50
2017-12-12T02:42:57.371Z,1.40
2017-12-12T02:45:24.843Z,1.27
2017-12-12T02:47:52.425Z,1.23
2017-12-12T02:50:19.874Z,1.33
2017-12-12T02:52:47.336Z,1.90
2017-12-12T02:55:14.775Z,1.80
2017-12-12T02:57:42.252Z,1.27
2017-12-12T03:00:09.699Z,1.53
2017-12-12T03:02:37.164Z,2.40
2017-12-12T03:05:04.680Z,2.07
2017-12-12T03:07:32.137Z,2.03
2017-12-12T03:09:59.613Z,1.20
2017-12-12T03:12:27.038Z,1.70
2017-12-12T03:14:54.486Z,2.00
2017-12-12T03:17:21.930Z,1.40
2017-12-12T03:19:49.463Z,1.50
2017-12-12T03:22:16.900Z,1.77
2017-12-12T03:24:44.354Z,1.30
2017-12-12T03:27:11.835Z,1.50
2017-12-12T03:29:39.298Z,3.87
2017-12-12T03:32:06.724Z,1.53
2017-12-12T03:34:34.183Z,2.70
2017-12-12T03:37:01.609Z,3.33
2017-12-12T03:39:29.117Z,2.23
2017-12-12T03:41:56.569Z,2.13
2017-12-12T03:44:24.022Z,1.27
2017-12-12T03:46:51.475Z,2.50
2017-12-12T03:49:18.902Z,1.63
2017-12-12T03:51:46.383Z,1.47
2017-12-12T03:54:13.943Z,2.00
2017-12-12T03:56:41.452Z,1.93
2017-12-12T03:59:08.895Z,1.60
2017-12-12T04:01:36.371Z,1.13
2017-12-12T04:04:03.811Z,2.00
2017-12-12T04:06:31.268Z,1.50
2017-12-12T04:08:58.719Z,2.10
2017-12-12T04:11:26.174Z,1.30
2017-12-12T04:13:53.607Z,2.53
2017-12-12T04:16:21.114Z,1.90
2017-12-12T04:18:48.537Z,1.50
2017-12-12T04:21:15.994Z,1.73
2017-12-12T04:23:43.466Z,1.70
2017-12-12T04:26:10.865Z,2.47
2017-12-12T04:28:38.308Z,1.50
2017-12-12T04:31:05.751Z,1.50
2017-12-12T04:33:33.197Z,1.57
2017-12-12T04:36:00.702Z,2.07
2017-12-12T04:38:28.159Z,1.80
2017-12-12T04:40:55.607Z,1.80
2017-12-12T04:43:23.073Z,6.00
2017-12-12T04:45:50.536Z,1.67
2017-12-12T04:48:18.099Z,1.70
2017-12-12T04:50:45.531Z,2.03
2017-12-12T04:53:13.013Z,2.07
2017-12-12T04:55:40.463Z,2.37
2017-12-12T04:58:07.932Z,1.70
2017-12-12T05:00:35.373Z,1.60
2017-12-12T05:03:02.841Z,2.40
2017-12-12T05:05:30.270Z,2.27
2017-12-12T05:07:57.731Z,1.60
2017-12-12T05:10:25.168Z,1.90
2017-12-12T05:12:52.614Z,2.47
2017-12-12T05:15:20.113Z,1.10
2017-12-12T05:17:47.537Z,1.37
2017-12-12T05:20:14.998Z,1.53
2017-12-12T05:22:42.445Z,1.20
2017-12-12T05:25:09.896Z,1.47
2017-12-12T05:27:37.332Z,1.30
2017-12-12T05:30:04.859Z,1.30
2017-12-12T05:32:32.289Z,1.40
2017-12-12T05:34:59.780Z,1.60
2017-12-12T05:37:27.326Z,1.50
2017-12-12T05:39:54.778Z,1.80
2017-12-12T05:42:22.202Z,2.20
2017-12-12T05:44:49.634Z,2.80
2017-12-12T05:47:17.097Z,1.90
2017-12-12T05:49:44.549Z,1.67
2017-12-12T05:52:12.054Z,1.80
2017-12-12T05:54:39.522Z,1.97
2017-12-12T05:57:07.009Z,2.07
2017-12-12T05:59:34.447Z,2.10
2017-12-12T06:02:01.907Z,1.87
2017-12-12T06:04:29.347Z,1.33
2017-12-12T06:06:56.812Z,1.63
2017-12-12T06:09:24.261Z,1.90
2017-12-12T06:11:51.806Z,2.57
2017-12-12T06:14:19.267Z,2.40
2017-12-12T06:16:46.751Z,2.57
2017-12-12T06:19:14.193Z,1.60
2017-12-12T06:21:41.616Z,1.63
2017-12-12T06:24:09.084Z,2.10
2017-12-12T06:26:36.549Z,1.80
2017-12-12T06:29:04.027Z,1.53
2017-12-12T06:31:31.472Z,1.87
2017-12-12T06:33:58.922Z,2.20
2017-12-12T06:36:26.363Z,2.50
2017-12-12T06:38:53.827Z,2.10
2017-12-12T06:41:21.262Z,2.00
2017-12-12T06:43:48.713Z,2.60
2017-12-12T06:46:16.212Z,1.30
2017-12-12T06:48:43.672Z,2.43
2017-12-12T06:51:11.147Z,1.47
2017-12-12T06:53:38.614Z,2.30
2017-12-12T06:56:06.099Z,1.40
2017-12-12T06:58:33.538Z,3.53
2017-12-12T07:01:00.983Z,1.30
2017-12-12T07:03:28.427Z,3.10
2017-12-12T07:05:55.882Z,1.77
2017-12-12T07:08:23.340Z,2.00
2017-12-12T07:10:50.801Z,1.40
2017-12-12T07:13:18.247Z,2.10
2017-12-12T07:15:45.713Z,1.83
2017-12-12T07:18:13.148Z,3.10
2017-12-12T07:20:40.602Z,2.30
2017-12-12T07:23:08.034Z,3.40
2017-12-12T07:25:35.582Z,2.10
2017-12-12T07:28:03.234Z,7.40
2017-12-12T07:30:30.734Z,2.20
2017-12-12T07:32:58.185Z,1.70
2017-12-12T07:35:25.618Z,2.00
2017-12-12T07:37:53.073Z,2.30
2017-12-12T07:40:20.498Z,1.60
2017-12-12T07:42:47.996Z,1.90
2017-12-12T07:45:15.443Z,1.40
2017-12-12T07:47:42.923Z,2.40
2017-12-12T07:50:10.375Z,1.87
2017-12-12T07:52:38.751Z,1.70
2017-12-12T07:55:07.127Z,4.83
2017-12-12T07:57:35.397Z,1.63
2017-12-12T08:00:03.673Z,1.40
2017-12-12T08:02:31.298Z,1.40
2017-12-12T08:04:58.729Z,1.17
2017-12-12T08:07:26.161Z,0.70
2017-12-12T08:09:53.626Z,1.30
2017-12-12T08:12:21.053Z,2.23
2017-12-12T08:14:48.511Z,1.47
2017-12-12T08:17:16.008Z,2.40
2017-12-12T08:19:43.504Z,5.50
2017-12-12T08:22:10.961Z,1.67
2017-12-12T08:24:38.416Z,2.30
2017-12-12T08:27:05.845Z,1.40
2017-12-12T08:29:33.297Z,1.40
2017-12-12T08:32:00.734Z,2.07
2017-12-12T08:34:28.178Z,1.53
2017-12-12T08:36:55.782Z,2.07
2017-12-12T08:39:23.215Z,1.50
2017-12-12T08:41:50.687Z,3.27
2017-12-12T08:44:18.226Z,1.40
2017-12-12T08:46:45.683Z,1.53
2017-12-12T08:49:13.109Z,1.43
2017-12-12T08:51:40.567Z,2.00
2017-12-12T08:54:08.011Z,1.53
2017-12-12T08:56:35.458Z,2.63
2017-12-12T08:59:02.892Z,1.07
2017-12-12T09:01:30.354Z,1.40
2017-12-12T09:03:57.791Z,3.13
2017-12-12T09:06:25.256Z,1.20
2017-12-12T09:08:52.695Z,1.77
2017-12-12T09:11:20.139Z,1.57
2017-12-12T09:13:47.593Z,1.17
2017-12-12T09:16:15.041Z,1.50
2017-12-12T09:18:42.491Z,2.20
2017-12-12T09:21:09.918Z,1.60
2017-12-12T09:23:37.367Z,1.83
2017-12-12T09:26:04.799Z,1.53
2017-12-12T09:28:32.249Z,1.83
2017-12-12T09:30:59.782Z,2.40
2017-12-12T09:33:27.240Z,2.80
2017-12-12T09:35:54.677Z,1.90
2017-12-12T09:38:22.144Z,0.70
2017-12-12T09:40:48.868Z,2.97
2017-12-12T09:43:16.331Z,0.80
2017-12-12T09:45:43.779Z,1.17
2017-12-12T09:48:11.246Z,3.57
2017-12-12T09:50:38.723Z,2.30
2017-12-12T09:53:06.159Z,1.10
2017-12-12T09:55:33.613Z,1.53
2017-12-12T09:58:01.166Z,1.00
2017-12-12T10:00:28.669Z,0.90
2017-12-12T10:02:56.073Z,1.93
2017-12-12T10:05:23.528Z,1.00
2017-12-12T10:07:50.964Z,1.03
2017-12-12T10:10:18.438Z,0.93
2017-12-12T10:12:45.887Z,0.93
2017-12-12T10:15:13.346Z,0.80
2017-12-12T10:17:40.774Z,1.00
2017-12-12T10:20:08.241Z,2.03
2017-12-12T10:22:35.686Z,6.67
2017-12-12T10:25:03.128Z,0.83
2017-12-12T10:27:30.587Z,1.90
2017-12-12T10:29:58.022Z,1.03
2017-12-12T10:32:25.496Z,12.90
2017-12-12T10:34:52.979Z,6.77
2017-12-12T10:37:20.437Z,3.00
2017-12-12T10:39:47.869Z,2.70
2017-12-12T10:42:15.343Z,2.70
2017-12-12T10:44:42.777Z,2.40
2017-12-12T10:47:10.230Z,4.30
2017-12-12T10:49:37.695Z,9.43
2017-12-12T10:52:05.158Z,3.67
2017-12-12T10:54:32.597Z,1.10
2017-12-12T10:57:00.059Z,3.53
2017-12-12T10:59:27.508Z,1.63
2017-12-12T11:01:54.977Z,5.87
2017-12-12T11:04:22.406Z,7.53
2017-12-12T11:06:49.879Z,7.30
2017-12-12T11:09:17.319Z,4.33
2017-12-12T11:11:44.759Z,3.97
2017-12-12T11:14:12.231Z,3.53
2017-12-12T11:16:39.678Z,3.53
2017-12-12T11:19:07.151Z,1.00
2017-12-12T11:21:34.582Z,2.63
2017-12-12T11:24:02.038Z,3.00
2017-12-12T11:26:29.479Z,1.07
2017-12-12T11:28:56.952Z,5.57
2017-12-12T11:31:24.408Z,1.50
2017-12-12T11:33:51.877Z,3.20
2017-12-12T11:36:19.315Z,1.03
2017-12-12T11:38:46.779Z,4.87
2017-12-12T11:41:14.226Z,1.77
2017-12-12T11:43:41.679Z,2.27
2017-12-12T11:46:09.115Z,2.13
2017-12-12T11:48:36.570Z,2.10
2017-12-12T11:51:04.001Z,2.73
2017-12-12T11:53:31.471Z,1.83
2017-12-12T11:55:58.965Z,4.57
2017-12-12T11:58:26.452Z,1.00
2017-12-12T12:00:53.922Z,2.70
2017-12-12T12:03:21.367Z,6.93
2017-12-12T12:05:48.931Z,2.00
2017-12-12T12:08:16.358Z,1.23
2017-12-12T12:10:43.814Z,0.83
2017-12-12T12:13:11.255Z,1.57
2017-12-12T12:15:38.710Z,1.20
2017-12-12T12:18:06.142Z,5.80
2017-12-12T12:20:33.674Z,1.63
2017-12-12T12:23:01.113Z,2.97
2017-12-12T12:25:28.575Z,1.70
2017-12-12T12:27:56.055Z,2.40
2017-12-12T12:30:23.505Z,0.80
2017-12-12T12:32:50.939Z,1.17
2017-12-12T12:35:18.387Z,2.40
2017-12-12T12:37:45.819Z,1.13
2017-12-12T12:40:13.283Z,4.17
2017-12-12T12:42:40.718Z,3.73
2017-12-12T12:45:08.160Z,3.00
2017-12-12T12:47:35.700Z,2.40
2017-12-12T12:50:03.142Z,1.77
2017-12-12T12:52:30.713Z,3.40
2017-12-12T12:54:58.147Z,1.80
2017-12-12T12:57:25.614Z,1.40
2017-12-12T12:59:53.059Z,3.23
2017-12-12T13:02:20.528Z,6.93
2017-12-12T13:04:47.963Z,3.70
2017-12-12T13:07:15.431Z,3.40
2017-12-12T13:09:42.863Z,4.30
2017-12-12T13:12:10.334Z,2.70
2017-12-12T13:14:37.763Z,1.80
2017-12-12T13:17:05.224Z,2.00
2017-12-12T13:19:32.654Z,3.67
2017-12-12T13:22:00.197Z,6.70
2017-12-12T13:24:27.644Z,4.00
2017-12-12T13:26:55.084Z,2.30
2017-12-12T13:29:22.543Z,3.73
2017-12-12T13:31:50.010Z,4.50
2017-12-12T13:34:17.469Z,2.57
2017-12-12T13:36:44.898Z,5.73
2017-12-12T13:39:12.361Z,3.40
2017-12-12T13:41:39.803Z,3.00
2017-12-12T13:44:07.271Z,1.33
2017-12-12T13:46:34.706Z,3.40
2017-12-12T13:49:02.162Z,4.40
2017-12-12T13:51:29.594Z,1.27
2017-12-12T13:53:57.061Z,5.17
2017-12-12T13:56:24.495Z,1.80
2017-12-12T13:58:51.954Z,2.90
2017-12-12T14:01:19.378Z,4.90
2017-12-12T14:03:46.833Z,8.83
2017-12-12T14:06:14.284Z,3.13
2017-12-12T14:08:41.741Z,4.73
2017-12-12T14:11:09.173Z,2.00
2017-12-12T14:13:36.597Z,2.50
2017-12-12T14:16:04.051Z,0.90
2017-12-12T14:18:31.587Z,0.90
2017-12-12T14:20:59.038Z,1.50
2017-12-12T14:23:26.503Z,1.77
2017-12-12T14:25:53.969Z,0.80
2017-12-12T14:28:21.428Z,1.63
2017-12-12T14:30:48.887Z,1.30
2017-12-12T14:33:16.324Z,1.13
2017-12-12T14:35:43.787Z,2.20
2017-12-12T14:38:11.238Z,0.80
2017-12-12T14:40:38.701Z,1.80
2017-12-12T14:43:06.135Z,1.43
2017-12-12T14:45:33.595Z,2.43
2017-12-12T14:48:01.030Z,2.93
2017-12-12T14:50:28.494Z,4.13
2017-12-12T14:52:55.930Z,9.87
2017-12-12T14:55:23.372Z,3.20
2017-12-12T14:57:50.888Z,6.43
2017-12-12T15:00:18.331Z,1.47
2017-12-12T15:02:45.812Z,1.03
2017-12-12T15:05:13.264Z,2.33
2017-12-12T15:07:40.714Z,1.43
2017-12-12T15:10:08.146Z,3.07
2017-12-12T15:12:35.607Z,2.03
2017-12-12T15:15:03.050Z,3.50
2017-12-12T15:17:30.525Z,5.37
2017-12-12T15:19:57.962Z,10.93
2017-12-12T15:22:25.453Z,6.90
2017-12-12T15:24:52.895Z,13.83
2017-12-12T15:27:20.345Z,9.40
2017-12-12T15:29:47.778Z,2.17
2017-12-12T15:32:15.239Z,1.47
2017-12-12T15:34:42.686Z,3.03
2017-12-12T15:37:10.143Z,1.90
2017-12-12T15:39:37.583Z,2.20
2017-12-12T15:42:05.066Z,1.37
2017-12-12T15:44:32.507Z,1.40
2017-12-12T15:46:59.942Z,3.00
2017-12-12T15:49:27.406Z,3.20
2017-12-12T15:51:54.837Z,1.07
2017-12-12T15:54:22.295Z,1.17
2017-12-12T15:56:49.729Z,3.57
2017-12-12T15:59:17.199Z,2.63
2017-12-12T16:01:44.639Z,6.10
2017-12-12T16:04:12.094Z,1.80
2017-12-12T16:06:39.544Z,1.10
2017-12-12T16:09:07.012Z,1.77
2017-12-12T16:11:35.091Z,1.20
2017-12-12T16:14:02.658Z,7.40
2017-12-12T16:16:30.101Z,1.93
2017-12-12T16:18:57.553Z,0.93
2017-12-12T16:21:25.076Z,3.30
2017-12-12T16:23:52.543Z,1.53
2017-12-12T16:26:19.977Z,2.53
2017-12-12T16:28:47.490Z,5.37
2017-12-12T16:31:14.941Z,3.40
2017-12-12T16:33:42.923Z,3.53
2017-12-12T16:36:10.438Z,3.90
2017-12-12T16:38:37.879Z,2.13
2017-12-12T16:41:05.340Z,6.67
2017-12-12T16:43:32.778Z,4.43
2017-12-12T16:46:00.233Z,2.53
2017-12-12T16:48:27.671Z,5.40
2017-12-12T16:50:55.142Z,15.53
2017-12-12T16:53:22.582Z,2.60
2017-12-12T16:55:50.055Z,3.50
2017-12-12T16:58:17.506Z,2.77
2017-12-12T17:00:45.347Z,1.60
2017-12-12T17:03:12.773Z,6.83
2017-12-12T17:05:40.207Z,3.63
2017-12-12T17:08:07.664Z,4.20
2017-12-12T17:10:35.129Z,3.20
2017-12-12T17:13:02.591Z,4.20
2017-12-12T17:15:30.062Z,2.10
2017-12-12T17:17:57.502Z,1.93
2017-12-12T17:20:24.989Z,3.67
2017-12-12T17:22:52.458Z,2.93
2017-12-12T17:25:19.907Z,2.30
2017-12-12T17:27:47.368Z,1.63
2017-12-12T17:30:14.828Z,1.93
2017-12-12T17:32:42.300Z,3.77
2017-12-12T17:35:09.741Z,1.87
2017-12-12T17:37:39.138Z,4.23
2017-12-12T17:40:06.575Z,4.90
2017-12-12T17:42:34.027Z,1.87
2017-12-12T17:45:01.568Z,1.90
2017-12-12T17:47:29.055Z,2.50
2017-12-12T17:49:56.546Z,3.83
2017-12-12T17:52:23.992Z,4.57
2017-12-12T17:54:51.543Z,1.07
2017-12-12T17:57:18.973Z,1.43
2017-12-12T17:59:46.455Z,1.80
2017-12-12T18:02:14.042Z,1.93
2017-12-12T18:04:41.498Z,4.40
2017-12-12T18:07:08.999Z,3.00
2017-12-12T18:09:36.469Z,4.90
2017-12-12T18:12:03.907Z,3.93
2017-12-12T18:14:31.405Z,2.87
2017-12-12T18:16:58.851Z,3.23
2017-12-12T18:19:26.307Z,1.33
2017-12-12T18:21:53.756Z,0.80
2017-12-12T18:24:21.228Z,1.70
2017-12-12T18:26:48.682Z,1.83
2017-12-12T18:29:16.147Z,1.90
2017-12-12T18:31:43.577Z,1.70
2017-12-12T18:34:11.005Z,1.87
2017-12-12T18:36:38.462Z,2.23
2017-12-12T18:39:05.889Z,2.90
2017-12-12T18:41:33.355Z,11.70
2017-12-12T18:44:00.838Z,5.80
2017-12-12T18:46:28.310Z,4.10
2017-12-12T18:48:55.749Z,8.43
2017-12-12T18:51:23.202Z,4.73
2017-12-12T18:53:50.644Z,3.70
2017-12-12T18:56:18.155Z,1.90
2017-12-12T18:58:45.600Z,1.73
2017-12-12T19:01:13.171Z,4.40
2017-12-12T19:03:40.606Z,1.97
2017-12-12T19:06:08.091Z,6.87
2017-12-12T19:08:35.540Z,3.77
2017-12-12T19:11:02.982Z,3.80
2017-12-12T19:13:30.471Z,4.03
2017-12-12T19:15:57.915Z,2.97
2017-12-12T19:18:25.379Z,4.07
2017-12-12T19:20:52.818Z,2.33
2017-12-12T19:23:20.265Z,5.73
2017-12-12T19:25:48.447Z,4.30
2017-12-12T19:28:15.897Z,7.60
2017-12-12T19:30:43.343Z,13.33
2017-12-12T19:33:10.793Z,6.10
2017-12-12T19:35:38.238Z,4.27
2017-12-12T19:38:05.694Z,4.70
2017-12-12T19:40:33.142Z,8.23
2017-12-12T19:43:00.612Z,3.03
2017-12-12T19:45:28.057Z,7.40
2017-12-12T19:47:55.520Z,4.63
2017-12-12T19:50:22.954Z,8.13
2017-12-12T19:52:50.478Z,6.47
2017-12-12T19:55:17.921Z,2.77
2017-12-12T19:57:45.362Z,3.40
2017-12-12T20:00:12.838Z,6.17
2017-12-12T20:02:40.288Z,3.50
2017-12-12T20:05:07.760Z,3.60
2017-12-12T20:07:35.212Z,5.13
2017-12-12T20:10:02.677Z,7.27
2017-12-12T20:12:30.119Z,3.50
2017-12-12T20:15:01.095Z,7.27
2017-12-12T20:17:28.545Z,7.10
2017-12-12T20:19:56.519Z,7.43
2017-12-12T20:22:24.383Z,4.23
2017-12-12T20:24:51.852Z,10.20
2017-12-12T20:27:19.293Z,5.53
2017-12-12T20:29:46.858Z,3.83
2017-12-12T20:32:14.399Z,4.87
2017-12-12T20:34:41.871Z,4.77
2017-12-12T20:37:09.317Z,5.73
2017-12-12T20:39:36.786Z,12.50
2017-12-12T20:42:04.227Z,11.60
2017-12-12T20:44:31.684Z,4.63
2017-12-12T20:46:59.199Z,12.50
2017-12-12T20:49:26.635Z,6.07
2017-12-12T20:51:54.097Z,6.07
2017-12-12T20:54:21.585Z,8.13
2017-12-12T20:56:49.150Z,6.10
2017-12-12T20:59:16.599Z,11.80
2017-12-12T21:01:44.054Z,5.33
2017-12-12T21:04:11.490Z,4.83
2017-12-12T21:06:38.959Z,6.53
2017-12-12T21:09:06.400Z,6.00
2017-12-12T21:11:33.871Z,5.40
2017-12-12T21:14:01.303Z,6.33
2017-12-12T21:16:28.754Z,4.10
2017-12-12T21:18:56.177Z,6.23
2017-12-12T21:21:23.652Z,5.87
2017-12-12T21:23:51.106Z,13.60
2017-12-12T21:26:18.555Z,6.87
2017-12-12T21:28:46.019Z,7.40
2017-12-12T21:31:13.454Z,11.43
2017-12-12T21:33:40.919Z,8.80
2017-12-12T21:36:08.363Z,11.00
2017-12-12T21:38:35.827Z,12.30
2017-12-12T21:41:03.272Z,15.90
2017-12-12T21:43:30.734Z,9.07
2017-12-12T21:45:58.177Z,8.40
2017-12-12T21:48:25.664Z,6.80
2017-12-12T21:50:53.111Z,7.40
2017-12-12T21:53:20.588Z,7.60
2017-12-12T21:55:48.022Z,5.17
2017-12-12T21:58:15.570Z,9.77
2017-12-12T22:00:43.031Z,7.03
2017-12-12T22:03:10.471Z,8.60
2017-12-12T22:05:37.924Z,5.73
2017-12-12T22:08:05.372Z,8.00
2017-12-12T22:10:32.843Z,8.30
2017-12-12T22:13:00.281Z,17.43
2017-12-12T22:15:27.764Z,15.97
2017-12-12T22:17:55.202Z,22.30
2017-12-12T22:20:22.653Z,9.57
2017-12-12T22:22:50.135Z,9.07
2017-12-12T22:25:17.594Z,14.90
2017-12-12T22:27:45.029Z,11.83
2017-12-12T22:30:12.498Z,10.63
2017-12-12T22:32:39.940Z,9.47
2017-12-12T22:35:07.393Z,12.27
2017-12-12T22:37:34.834Z,7.00
2017-12-12T22:40:02.290Z,6.50
2017-12-12T22:42:29.763Z,7.60
2017-12-12T22:44:57.193Z,7.10
2017-12-12T22:47:24.663Z,7.07
2017-12-12T22:49:52.108Z,8.30
2017-12-12T22:52:19.579Z,10.53
2017-12-12T22:54:47.045Z,10.20
2017-12-12T22:57:14.498Z,7.10
2017-12-12T22:59:41.934Z,10.50
2017-12-12T23:02:09.398Z,7.90
2017-12-12T23:04:36.829Z,12.83
2017-12-12T23:07:04.305Z,14.50
2017-12-12T23:09:31.756Z,13.70
2017-12-12T23:11:59.203Z,11.50
2017-12-12T23:14:26.707Z,7.63
2017-12-12T23:16:54.156Z,11.13
2017-12-12T23:19:21.726Z,10.70
2017-12-12T23:21:49.165Z,22.87
2017-12-12T23:24:16.629Z,6.90
2017-12-12T23:26:44.095Z,12.03
2017-12-12T23:29:12.171Z,6.00
2017-12-12T23:31:39.606Z,6.73
2017-12-12T23:34:07.071Z,9.50
2017-12-12T23:36:34.520Z,13.43
2017-12-12T23:39:02.011Z,6.30
2017-12-12T23:41:29.460Z,10.63
2017-12-12T23:43:56.917Z,8.13
2017-12-12T23:46:24.379Z,6.03
2017-12-12T23:48:51.836Z,6.37
2017-12-12T23:51:19.294Z,5.60
2017-12-12T23:53:46.725Z,7.63
2017-12-12T23:56:14.298Z,7.27
2017-12-12T23:58:41.743Z,11.73
